createdAt,value
2018-07-28T00:01:07.411Z,100205.09
2018-07-28T00:03:35.448Z,100206.66
2018-07-28T00:06:03.475Z,100199.25
2018-07-28T00:08:31.483Z,100198.11
2018-07-28T00:10:59.513Z,100194.86
2018-07-28T00:13:27.517Z,100194.62
2018-07-28T00:15:55.556Z,100194.28
2018-07-28T00:18:23.601Z,100191.97
2018-07-28T00:20:51.604Z,100193.66
2018-07-28T00:23:19.631Z,100185.31
2018-07-28T00:25:53.173Z,100178.85
2018-07-28T00:28:21.168Z,100176.27
2018-07-28T00:30:49.220Z,100172.67
2018-07-28T00:33:17.254Z,100171.76
2018-07-28T00:35:45.319Z,100171.78
2018-07-28T00:38:13.380Z,100168.66
2018-07-28T00:40:41.433Z,100165.39
2018-07-28T00:43:09.453Z,100157.06
2018-07-28T00:45:37.504Z,100147.26
2018-07-28T00:48:05.620Z,100145.19
2018-07-28T00:50:33.617Z,100143.20
2018-07-28T00:53:01.685Z,100144.06
2018-07-28T00:55:29.721Z,100139.83
2018-07-28T00:57:57.741Z,100133.78
2018-07-28T01:00:25.757Z,100137.76
2018-07-28T01:02:53.756Z,100135.77
2018-07-28T01:05:21.760Z,100138.73
2018-07-28T01:07:49.786Z,100137.64
2018-07-28T01:10:17.935Z,100136.67
2018-07-28T01:12:45.956Z,100132.77
2018-07-28T01:15:14.102Z,100130.36
2018-07-28T01:17:42.110Z,100133.43
2018-07-28T01:20:11.560Z,100133.30
2018-07-28T01:22:40.355Z,100127.19
2018-07-28T01:25:09.648Z,100128.27
2018-07-28T01:27:37.676Z,100129.02
2018-07-28T01:30:09.240Z,100117.14
2018-07-28T01:32:37.254Z,100118.69
2018-07-28T01:35:05.926Z,100114.19
2018-07-28T01:37:34.216Z,100111.70
2018-07-28T01:40:02.300Z,100109.14
2018-07-28T01:42:31.353Z,100106.75
2018-07-28T01:44:59.340Z,100108.86
2018-07-28T01:47:27.377Z,100101.66
2018-07-28T01:49:55.366Z,100098.13
2018-07-28T01:52:23.385Z,100095.30
2018-07-28T01:54:51.397Z,100090.72
2018-07-28T01:57:19.401Z,100091.54
2018-07-28T01:59:47.466Z,100085.95
2018-07-28T02:02:15.401Z,100084.61
2018-07-28T02:04:43.450Z,100077.11
2018-07-28T02:07:11.572Z,100077.92
2018-07-28T02:09:39.592Z,100075.50
2018-07-28T02:12:07.764Z,100076.33
2018-07-28T02:14:35.781Z,100077.32
2018-07-28T02:17:03.780Z,100072.84
2018-07-28T02:19:31.784Z,100066.56
2018-07-28T02:22:00.412Z,100068.52
2018-07-28T02:24:28.516Z,100058.72
2018-07-28T02:26:56.541Z,100054.64
2018-07-28T02:29:24.554Z,100050.84
2018-07-28T02:31:52.595Z,100045.81
2018-07-28T02:34:20.609Z,100037.75
2018-07-28T02:36:48.609Z,100043.20
2018-07-28T02:39:16.628Z,100031.92
2018-07-28T02:41:44.655Z,100028.13
2018-07-28T02:44:12.653Z,100021.13
2018-07-28T02:46:40.655Z,100022.23
2018-07-28T02:49:08.700Z,100020.75
2018-07-28T02:51:36.706Z,100017.88
2018-07-28T02:54:04.712Z,100017.88
2018-07-28T02:56:32.747Z,100020.88
2018-07-28T02:59:00.725Z,100019.10
2018-07-28T03:01:29.832Z,100011.59
2018-07-28T03:03:57.897Z,100015.48
2018-07-28T03:06:25.894Z,100012.34
2018-07-28T03:08:54.200Z,100010.69
2018-07-28T03:11:22.251Z,100008.44
2018-07-28T03:13:50.329Z,99999.25
2018-07-28T03:16:18.348Z,100001.89
2018-07-28T03:18:46.401Z,99990.14
2018-07-28T03:21:14.408Z,99995.99
2018-07-28T03:23:42.486Z,99989.95
2018-07-28T03:26:10.484Z,99989.34
2018-07-28T03:28:38.476Z,99982.22
2018-07-28T03:31:06.476Z,99989.72
2018-07-28T03:33:34.473Z,99984.28
2018-07-28T03:36:02.509Z,99975.86
2018-07-28T03:38:30.518Z,99975.90
2018-07-28T03:40:58.536Z,99974.92
2018-07-28T03:43:26.538Z,99978.27
2018-07-28T03:45:54.544Z,99967.53
2018-07-28T03:48:22.603Z,99965.39
2018-07-28T03:50:50.636Z,99960.31
2018-07-28T03:53:18.636Z,99964.02
2018-07-28T03:55:46.636Z,99966.86
2018-07-28T03:58:14.642Z,99970.38
2018-07-28T04:00:42.737Z,99970.90
2018-07-28T04:03:10.886Z,99966.21
2018-07-28T04:05:38.925Z,99965.73
2018-07-28T04:08:06.919Z,99960.36
2018-07-28T04:10:34.932Z,99959.02
2018-07-28T04:13:02.944Z,99961.06
2018-07-28T04:15:30.975Z,99956.54
2018-07-28T04:17:59.062Z,99949.56
2018-07-28T04:20:27.970Z,99956.52
2018-07-28T04:22:56.153Z,99948.66
2018-07-28T04:25:24.452Z,99951.31
2018-07-28T04:27:52.592Z,99943.11
2018-07-28T04:30:20.600Z,99943.30
2018-07-28T04:32:48.632Z,99936.95
2018-07-28T04:35:16.632Z,99938.64
2018-07-28T04:37:44.663Z,99938.75
2018-07-28T04:40:13.060Z,99939.44
2018-07-28T04:42:42.149Z,99935.53
2018-07-28T04:45:10.188Z,99936.80
2018-07-28T04:47:39.180Z,99934.96
2018-07-28T04:50:07.494Z,99935.44
2018-07-28T04:52:35.533Z,99931.64
2018-07-28T04:55:03.996Z,99935.89
2018-07-28T04:57:31.971Z,99931.63
2018-07-28T04:59:59.994Z,99929.16
2018-07-28T05:02:28.563Z,99926.13
2018-07-28T05:04:57.051Z,99924.58
2018-07-28T05:07:25.494Z,99917.52
2018-07-28T05:09:53.600Z,99922.31
2018-07-28T05:12:21.676Z,99910.45
2018-07-28T05:14:49.676Z,99916.05
2018-07-28T05:17:17.766Z,99912.13
2018-07-28T05:19:45.830Z,99912.31
2018-07-28T05:22:13.860Z,99914.71
2018-07-28T05:24:42.952Z,99915.42
2018-07-28T05:27:10.944Z,99913.56
2018-07-28T05:29:39.008Z,99915.67
2018-07-28T05:32:06.920Z,99914.85
2018-07-28T05:34:34.904Z,99919.45
2018-07-28T05:37:02.926Z,99908.89
2018-07-28T05:39:30.884Z,99914.89
2018-07-28T05:41:58.928Z,99916.48
2018-07-28T05:44:26.923Z,99917.14
2018-07-28T05:46:57.005Z,99919.38
2018-07-28T05:49:25.006Z,99917.55
2018-07-28T05:51:53.089Z,99911.81
2018-07-28T05:54:21.121Z,99917.54
2018-07-28T05:56:49.209Z,99914.61
2018-07-28T05:59:18.325Z,99913.74
2018-07-28T06:01:46.332Z,99912.39
2018-07-28T06:04:14.326Z,99909.44
2018-07-28T06:06:42.324Z,99915.19
2018-07-28T06:09:10.652Z,99916.61
2018-07-28T06:11:38.999Z,99918.58
2018-07-28T06:16:41.393Z,99912.02
2018-07-28T06:19:09.420Z,99912.35
2018-07-28T06:21:37.432Z,99914.39
2018-07-28T06:24:05.532Z,99897.27
2018-07-28T06:26:33.526Z,99889.33
2018-07-28T06:29:01.516Z,99881.52
2018-07-28T06:31:29.545Z,99887.23
2018-07-28T06:33:58.585Z,99885.23
2018-07-28T06:36:26.619Z,99877.89
2018-07-28T06:38:54.578Z,99875.17
2018-07-28T06:41:22.649Z,99874.20
2018-07-28T06:43:50.650Z,99875.12
2018-07-28T06:46:18.822Z,99878.14
2018-07-28T06:48:46.828Z,99875.25
2018-07-28T06:51:14.809Z,99876.56
2018-07-28T06:53:42.915Z,99877.78
2018-07-28T06:56:10.940Z,99880.58
2018-07-28T06:58:39.073Z,99882.13
2018-07-28T07:01:07.050Z,99883.87
2018-07-28T07:03:35.225Z,99889.92
2018-07-28T07:06:03.268Z,99891.53
2018-07-28T07:08:31.307Z,99895.37
2018-07-28T07:10:59.339Z,99887.98
2018-07-28T07:13:28.331Z,99894.03
2018-07-28T07:15:56.368Z,99897.68
2018-07-28T07:18:24.401Z,99890.45
2018-07-28T07:20:52.547Z,99887.16
2018-07-28T07:23:20.604Z,99881.40
2018-07-28T07:25:48.620Z,99888.47
2018-07-28T07:28:16.619Z,99897.27
2018-07-28T07:30:44.739Z,99907.46
2018-07-28T07:33:12.768Z,99895.56
2018-07-28T07:35:40.748Z,99896.92
2018-07-28T07:38:08.754Z,99888.50
2018-07-28T07:40:36.967Z,99888.54
2018-07-28T07:43:05.220Z,99889.91
2018-07-28T07:45:33.221Z,99892.86
2018-07-28T07:48:01.251Z,99885.47
2018-07-28T07:50:29.272Z,99886.77
2018-07-28T07:52:57.267Z,99892.84
2018-07-28T07:55:25.677Z,99891.95
2018-07-28T07:57:53.725Z,99882.77
2018-07-28T08:00:21.707Z,99877.63
2018-07-28T08:02:49.697Z,99877.02
2018-07-28T08:05:17.689Z,99864.79
2018-07-28T08:07:45.680Z,99871.05
2018-07-28T08:10:14.688Z,99873.02
2018-07-28T08:12:42.721Z,99869.61
2018-07-28T08:15:10.736Z,99869.83
2018-07-28T08:17:38.732Z,99860.03
2018-07-28T08:20:06.806Z,99860.59
2018-07-28T08:22:34.815Z,99853.92
2018-07-28T08:25:03.580Z,99852.28
2018-07-28T08:27:31.551Z,99854.39
2018-07-28T08:29:59.545Z,99855.55
2018-07-28T08:32:27.592Z,99854.81
2018-07-28T08:34:55.584Z,99857.96
2018-07-28T08:37:23.603Z,99847.50
2018-07-28T08:39:51.760Z,99848.49
2018-07-28T08:42:19.740Z,99854.66
2018-07-28T08:44:47.734Z,99852.61
2018-07-28T08:47:15.762Z,99849.02
2018-07-28T08:49:43.784Z,99859.03
2018-07-28T08:52:11.768Z,99841.84
2018-07-28T08:54:39.918Z,99830.42
2018-07-28T08:57:08.046Z,99828.28
2018-07-28T08:59:36.057Z,99825.22
2018-07-28T09:02:04.072Z,99830.56
2018-07-28T09:04:32.180Z,99838.22
2018-07-28T09:07:00.216Z,99835.30
2018-07-28T09:09:28.275Z,99837.05
2018-07-28T09:11:56.446Z,99825.48
2018-07-28T09:14:24.451Z,99826.59
2018-07-28T09:16:52.443Z,99816.64
2018-07-28T09:19:20.456Z,99820.36
2018-07-28T09:21:48.505Z,99823.92
2018-07-28T09:24:16.669Z,99816.27
2018-07-28T09:26:44.672Z,99817.01
2018-07-28T09:29:12.776Z,99802.09
2018-07-28T09:31:40.745Z,99812.33
2018-07-28T09:34:09.067Z,99809.56
2018-07-28T09:36:37.049Z,99808.80
2018-07-28T09:39:08.256Z,99804.22
2018-07-28T09:41:36.378Z,99807.52
2018-07-28T09:44:04.376Z,99805.77
2018-07-28T09:46:32.404Z,99802.52
2018-07-28T09:49:00.388Z,99800.78
2018-07-28T09:51:28.411Z,99803.78
2018-07-28T09:53:56.396Z,99803.83
2018-07-28T09:56:25.220Z,99798.94
2018-07-28T09:58:53.273Z,99805.48
2018-07-28T10:01:23.172Z,99796.72
2018-07-28T10:03:51.664Z,99785.98
2018-07-28T10:06:19.648Z,99782.38
2018-07-28T10:08:47.657Z,99780.66
2018-07-28T10:11:15.828Z,99780.45
2018-07-28T10:13:43.858Z,99788.48
2018-07-28T10:16:12.160Z,99783.36
2018-07-28T10:18:40.278Z,99782.22
2018-07-28T10:21:08.268Z,99773.42
2018-07-28T10:23:36.508Z,99761.65
2018-07-28T10:26:04.512Z,99760.02
2018-07-28T10:28:32.484Z,99764.13
2018-07-28T10:31:00.513Z,99765.19
2018-07-28T10:33:29.549Z,99764.98
2018-07-28T10:35:57.524Z,99764.75
2018-07-28T10:38:25.504Z,99753.23
2018-07-28T10:40:53.572Z,99746.92
2018-07-28T10:43:21.597Z,99748.02
2018-07-28T10:45:49.648Z,99746.92
2018-07-28T10:48:17.676Z,99754.04
2018-07-28T10:50:45.807Z,99742.72
2018-07-28T10:53:13.804Z,99745.14
2018-07-28T10:55:41.846Z,99738.03
2018-07-28T10:58:09.828Z,99739.88
2018-07-28T11:00:37.832Z,99741.00
2018-07-28T11:03:05.805Z,99748.27
2018-07-28T11:05:33.782Z,99741.83
2018-07-28T11:08:01.878Z,99735.79
2018-07-28T11:10:29.856Z,99733.70
2018-07-28T11:12:57.893Z,99727.09
2018-07-28T11:15:26.901Z,99718.23
2018-07-28T11:17:54.880Z,99718.39
2018-07-28T11:20:22.948Z,99725.57
2018-07-28T11:22:50.921Z,99711.37
2018-07-28T11:25:18.928Z,99708.74
2018-07-28T11:27:46.896Z,99711.01
2018-07-28T11:30:15.001Z,99701.53
2018-07-28T11:32:54.589Z,99686.70
2018-07-28T11:35:34.206Z,99682.66
2018-07-28T11:38:41.445Z,99667.78
2018-07-28T11:41:20.886Z,99676.28
2018-07-28T11:44:00.348Z,99670.86
2018-07-28T11:46:28.497Z,99677.27
2018-07-28T11:48:56.468Z,99675.00
2018-07-28T11:51:24.502Z,99664.72
2018-07-28T11:53:52.425Z,99666.53
2018-07-28T11:56:20.544Z,99665.39
2018-07-28T11:58:48.568Z,99671.72
2018-07-28T12:01:16.572Z,99683.56
2018-07-28T12:03:44.564Z,99688.22
2018-07-28T12:06:12.537Z,99691.27
2018-07-28T12:08:40.531Z,99693.96
2018-07-28T12:11:08.588Z,99721.19
2018-07-28T12:13:36.593Z,99741.17
2018-07-28T12:16:04.669Z,99762.07
2018-07-28T12:18:32.650Z,99766.78
2018-07-28T12:21:00.650Z,99776.50
2018-07-28T12:23:28.633Z,99799.59
2018-07-28T12:25:56.690Z,99811.64
2018-07-28T12:28:24.764Z,99850.80
2018-07-28T12:30:52.816Z,99839.47
2018-07-28T12:33:20.809Z,99841.56
2018-07-28T12:35:48.826Z,99836.17
2018-07-28T12:38:16.844Z,99842.55
2018-07-28T12:40:44.877Z,99845.17
2018-07-28T12:43:12.900Z,99851.28
2018-07-28T12:45:40.896Z,99866.66
2018-07-28T12:48:08.989Z,99846.42
2018-07-28T12:50:37.136Z,99845.36
2018-07-28T12:53:05.177Z,99853.41
2018-07-28T12:55:33.259Z,99854.73
2018-07-28T12:58:01.204Z,99853.31
2018-07-28T13:00:29.189Z,99853.38
2018-07-28T13:02:57.228Z,99859.81
2018-07-28T13:05:25.228Z,99866.56
2018-07-28T13:07:53.228Z,99870.45
2018-07-28T13:10:21.225Z,99879.03
2018-07-28T13:12:49.248Z,99895.87
2018-07-28T13:15:17.272Z,99896.81
2018-07-28T13:17:45.346Z,99905.23
2018-07-28T13:20:13.347Z,99898.91
2018-07-28T13:22:41.370Z,99898.67
2018-07-28T13:25:09.425Z,99895.94
2018-07-28T13:27:37.613Z,99905.69
2018-07-28T13:30:06.157Z,99903.70
2018-07-28T13:32:34.218Z,99900.66
2018-07-28T13:35:02.271Z,99898.38
2018-07-28T13:37:30.280Z,99895.36
2018-07-28T13:39:58.282Z,99900.73
2018-07-28T13:42:26.501Z,99893.98
2018-07-28T13:44:54.532Z,99903.33
2018-07-28T13:47:22.621Z,99892.98
2018-07-28T13:49:50.737Z,99889.27
2018-07-28T13:52:18.828Z,99883.70
2018-07-28T13:54:46.892Z,99876.96
2018-07-28T13:57:14.926Z,99873.78
2018-07-28T13:59:42.950Z,99864.58
2018-07-28T14:02:11.068Z,99863.66
2018-07-28T14:04:39.124Z,99855.95
2018-07-28T14:07:07.218Z,99851.52
2018-07-28T14:09:35.332Z,99847.77
2018-07-28T14:12:03.489Z,99852.63
2018-07-28T14:14:31.660Z,99852.84
2018-07-28T14:16:59.795Z,99852.86
2018-07-28T14:19:28.854Z,99856.81
2018-07-28T14:21:56.891Z,99851.09
2018-07-28T14:24:24.884Z,99848.08
2018-07-28T14:26:52.996Z,99850.66
2018-07-28T14:29:21.022Z,99855.83
2018-07-28T14:31:49.037Z,99865.08
2018-07-28T14:34:17.109Z,99865.69
2018-07-28T14:36:45.152Z,99868.00
2018-07-28T14:39:13.156Z,99868.91
2018-07-28T14:41:41.201Z,99880.24
2018-07-28T14:44:09.213Z,99872.33
2018-07-28T14:46:37.243Z,99873.84
2018-07-28T14:49:05.326Z,99897.33
2018-07-28T14:51:33.392Z,99914.78
2018-07-28T14:54:01.433Z,99917.36
2018-07-28T14:56:29.481Z,99912.96
2018-07-28T14:58:57.472Z,99925.92
2018-07-28T15:01:25.808Z,99932.42
2018-07-28T15:03:53.765Z,99947.31
2018-07-28T15:06:21.758Z,99941.83
2018-07-28T15:08:49.760Z,99941.82
2018-07-28T15:11:17.757Z,99950.31
2018-07-28T15:13:45.823Z,99965.57
2018-07-28T15:16:13.797Z,99963.16
2018-07-28T15:18:41.865Z,99967.38
2018-07-28T15:21:09.993Z,99962.34
2018-07-28T15:23:39.052Z,99968.29
2018-07-28T15:26:07.164Z,99967.44
2018-07-28T15:28:35.294Z,99966.11
2018-07-28T15:31:03.264Z,99967.62
2018-07-28T15:33:31.273Z,99975.55
2018-07-28T15:35:59.280Z,99974.44
2018-07-28T15:38:27.341Z,99966.91
2018-07-28T15:40:55.380Z,99972.50
2018-07-28T15:43:23.559Z,99969.91
2018-07-28T15:45:51.564Z,99969.21
2018-07-28T15:48:19.824Z,99966.84
2018-07-28T15:50:47.860Z,99970.46
2018-07-28T15:53:15.915Z,99974.31
2018-07-28T15:55:43.932Z,99982.01
2018-07-28T15:58:11.976Z,99991.09
2018-07-28T16:00:40.016Z,99984.08
2018-07-28T16:03:08.156Z,99983.80
2018-07-28T16:05:36.238Z,99993.19
2018-07-28T16:08:04.244Z,99990.56
2018-07-28T16:10:32.250Z,99995.66
2018-07-28T16:13:00.256Z,99988.71
2018-07-28T16:15:28.276Z,99983.59
2018-07-28T16:17:56.318Z,99988.73
2018-07-28T16:20:24.429Z,99984.75
2018-07-28T16:22:52.608Z,99978.29
2018-07-28T16:25:20.712Z,99974.34
2018-07-28T16:27:48.902Z,99975.95
2018-07-28T16:30:16.776Z,99979.90
2018-07-28T16:32:44.749Z,99977.98
2018-07-28T16:35:12.753Z,99974.02
2018-07-28T16:37:40.740Z,99970.19
2018-07-28T16:40:08.813Z,99980.95
2018-07-28T16:42:36.820Z,99975.91
2018-07-28T16:45:04.912Z,99980.91
2018-07-28T16:47:32.933Z,100002.28
2018-07-28T16:50:00.972Z,100050.77
2018-07-28T16:52:29.196Z,100061.27
2018-07-28T16:54:57.267Z,100023.83
2018-07-28T16:57:26.157Z,100040.57
2018-07-28T16:59:54.340Z,100068.89
2018-07-28T17:02:22.343Z,100056.49
2018-07-28T17:04:50.453Z,100056.09
2018-07-28T17:07:18.512Z,100061.31
2018-07-28T17:09:46.619Z,100070.77
2018-07-28T17:12:15.487Z,100085.75
2018-07-28T17:14:43.524Z,100086.36
2018-07-28T17:17:11.519Z,100090.33
2018-07-28T17:19:39.620Z,100091.43
2018-07-28T17:22:07.719Z,100072.13
2018-07-28T17:24:35.740Z,100076.25
2018-07-28T17:27:03.810Z,100074.19
2018-07-28T17:29:31.868Z,100064.18
2018-07-28T17:31:59.850Z,100065.88
2018-07-28T17:34:27.844Z,100064.56
2018-07-28T17:36:55.893Z,100067.23
2018-07-28T17:39:23.938Z,100078.34
2018-07-28T17:41:52.044Z,100082.86
2018-07-28T17:44:21.172Z,100092.89
2018-07-28T17:46:49.220Z,100108.37
2018-07-28T17:49:17.269Z,100139.44
2018-07-28T17:51:45.348Z,100151.38
2018-07-28T17:54:13.428Z,100224.03
2018-07-28T17:56:42.496Z,100217.23
2018-07-28T17:59:10.636Z,100202.48
2018-07-28T18:01:38.856Z,100231.33
2018-07-28T18:04:06.974Z,100236.08
2018-07-28T18:06:35.040Z,100221.51
2018-07-28T18:09:03.158Z,100226.15
2018-07-28T18:11:31.213Z,100213.27
2018-07-28T18:13:59.288Z,100212.45
2018-07-28T18:16:28.522Z,100213.95
2018-07-28T18:18:57.573Z,100208.34
2018-07-28T18:21:25.639Z,100203.70
2018-07-28T18:23:53.709Z,100207.72
2018-07-28T18:26:21.682Z,100206.42
2018-07-28T18:28:49.833Z,100198.77
2018-07-28T18:31:17.854Z,100190.41
2018-07-28T18:33:45.816Z,100196.77
2018-07-28T18:36:13.944Z,100213.94
2018-07-28T18:38:41.973Z,100218.58
2018-07-28T18:41:09.968Z,100212.95
2018-07-28T18:43:37.944Z,100213.48
2018-07-28T18:46:05.977Z,100224.33
2018-07-28T18:48:33.957Z,100222.82
2018-07-28T18:51:01.965Z,100222.53
2018-07-28T18:53:29.989Z,100214.90
2018-07-28T18:55:58.056Z,100208.24
2018-07-28T18:58:26.156Z,100208.95
2018-07-28T19:00:54.172Z,100232.20
2018-07-28T19:03:22.253Z,100254.25
2018-07-28T19:05:50.405Z,100263.54
2018-07-28T19:08:18.471Z,100273.72
2018-07-28T19:10:46.495Z,100291.20
2018-07-28T19:13:20.017Z,100300.00
2018-07-28T19:15:48.513Z,100294.11
2018-07-28T19:18:21.976Z,100289.30
2018-07-28T19:20:50.046Z,100285.72
2018-07-28T19:23:24.485Z,100298.59
2018-07-28T19:25:52.481Z,100310.12
2018-07-28T19:28:26.660Z,100317.18
2018-07-28T19:30:54.724Z,100317.02
2018-07-28T19:33:22.757Z,100316.34
2018-07-28T19:35:56.328Z,100304.05
2018-07-28T19:38:24.346Z,100306.78
2018-07-28T19:40:52.383Z,100312.61
2018-07-28T19:43:20.368Z,100302.33
2018-07-28T19:45:48.409Z,100296.06
2018-07-28T19:48:16.404Z,100307.47
2018-07-28T19:50:44.506Z,100312.80
2018-07-28T19:53:12.513Z,100320.11
2018-07-28T19:55:40.691Z,100322.44
2018-07-28T19:58:08.758Z,100349.66
2018-07-28T20:00:36.862Z,100376.24
2018-07-28T20:03:05.075Z,100382.03
2018-07-28T20:05:33.135Z,100371.94
2018-07-28T20:08:01.162Z,100357.09
2018-07-28T20:10:29.153Z,100349.09
2018-07-28T20:12:57.132Z,100352.74
2018-07-28T20:15:25.105Z,100363.98
2018-07-28T20:17:53.125Z,100378.41
2018-07-28T20:20:21.271Z,100391.75
2018-07-28T20:22:49.268Z,100395.78
2018-07-28T20:25:17.280Z,100400.49
2018-07-28T20:27:45.313Z,100411.26
2018-07-28T20:30:13.300Z,100414.62
2018-07-28T20:32:41.367Z,100421.27
2018-07-28T20:35:09.818Z,100425.48
2018-07-28T20:37:37.860Z,100440.95
2018-07-28T20:40:05.914Z,100447.31
2018-07-28T20:42:34.001Z,100449.88
2018-07-28T20:45:02.037Z,100457.42
2018-07-28T20:47:30.066Z,100456.42
2018-07-28T20:49:58.026Z,100450.69
2018-07-28T20:52:26.041Z,100455.06
2018-07-28T20:54:54.042Z,100457.23
2018-07-28T20:57:22.053Z,100455.22
2018-07-28T20:59:50.077Z,100454.73
2018-07-28T21:02:18.060Z,100467.50
2018-07-28T21:04:46.064Z,100459.11
2018-07-28T21:07:14.061Z,100448.84
2018-07-28T21:09:42.053Z,100438.95
2018-07-28T21:12:10.137Z,100437.45
2018-07-28T21:14:38.220Z,100448.20
2018-07-28T21:17:06.291Z,100461.63
2018-07-28T21:19:34.423Z,100460.77
2018-07-28T21:22:02.525Z,100449.86
2018-07-28T21:24:30.633Z,100460.44
2018-07-28T21:26:58.609Z,100440.27
2018-07-28T21:29:27.621Z,100435.91
2018-07-28T21:31:55.663Z,100437.77
2018-07-28T21:34:23.672Z,100425.50
2018-07-28T21:36:51.680Z,100428.87
2018-07-28T21:39:19.672Z,100427.84
2018-07-28T21:41:47.692Z,100436.59
2018-07-28T21:44:15.674Z,100437.61
2018-07-28T21:46:43.674Z,100439.75
2018-07-28T21:49:11.676Z,100455.59
2018-07-28T21:51:39.708Z,100451.89
2018-07-28T21:54:07.784Z,100458.45
2018-07-28T21:56:35.848Z,100466.47
2018-07-28T21:59:03.938Z,100478.25
2018-07-28T22:01:31.987Z,100489.84
2018-07-28T22:04:02.349Z,100504.79
2018-07-28T22:06:31.549Z,100515.37
2018-07-28T22:08:59.541Z,100528.64
2018-07-28T22:11:27.573Z,100535.31
2018-07-28T22:13:55.586Z,100537.45
2018-07-28T22:16:23.560Z,100539.66
2018-07-28T22:18:51.568Z,100548.38
2018-07-28T22:21:19.614Z,100545.25
2018-07-28T22:26:18.154Z,100547.54
2018-07-28T22:28:46.152Z,100549.72
2018-07-28T22:31:14.194Z,100547.38
2018-07-28T22:33:42.197Z,100551.36
2018-07-28T22:36:11.261Z,100555.04
2018-07-28T22:38:39.321Z,100558.23
2018-07-28T22:41:07.453Z,100550.02
2018-07-28T22:43:35.853Z,100562.98
2018-07-28T22:46:03.863Z,100559.44
2018-07-28T22:48:31.876Z,100558.55
2018-07-28T22:50:59.888Z,100548.91
2018-07-28T22:53:27.891Z,100549.77
2018-07-28T22:55:55.906Z,100551.14
2018-07-28T22:58:23.984Z,100547.41
2018-07-28T23:00:51.980Z,100540.23
2018-07-28T23:03:20.025Z,100544.56
2018-07-28T23:05:48.023Z,100543.85
2018-07-28T23:08:16.021Z,100545.31
2018-07-28T23:10:44.012Z,100551.80
2018-07-28T23:13:12.011Z,100557.02
2018-07-28T23:15:40.001Z,100557.53
2018-07-28T23:18:08.052Z,100567.00
2018-07-28T23:20:36.089Z,100573.48
2018-07-28T23:23:04.124Z,100580.14
2018-07-28T23:25:32.112Z,100580.46
2018-07-28T23:28:00.149Z,100578.01
2018-07-28T23:30:28.129Z,100578.61
2018-07-28T23:32:56.192Z,100577.15
2018-07-28T23:35:24.229Z,100579.25
2018-07-28T23:37:52.225Z,100572.89
2018-07-28T23:40:20.238Z,100573.31
2018-07-28T23:42:48.248Z,100579.45
2018-07-28T23:45:16.259Z,100576.84
2018-07-28T23:47:44.323Z,100581.86
2018-07-28T23:50:12.321Z,100584.11
2018-07-28T23:52:40.477Z,100592.95
2018-07-28T23:55:08.496Z,100593.98
2018-07-28T23:57:36.557Z,100595.08
